Time,TemperatureF,DewpointF,PressureIn,WindDirection,WindDirectionDegrees,WindSpeedMPH,WindSpeedGustMPH,Humidity,HourlyPrecipIn,Conditions,Clouds,dailyrainin,SoftwareType,DateUTC
2013-02-24 00:06:00,44.0,41.0,29.82,NNW,335,0.0,0.0,90,0.00,,,0.00,weatherlink.com 1.10,2013-02-24 05:06:00,
2013-02-24 00:21:00,44.0,41.0,29.81,NNW,331,2.0,2.0,90,0.00,,,0.00,weatherlink.com 1.10,2013-02-24 05:21:00,
2013-02-24 00:36:00,43.5,41.0,29.82,NNW,327,1.0,2.0,91,0.00,,,0.00,weatherlink.com 1.10,2013-02-24 05:36:00,
2013-02-24 00:51:00,43.1,41.0,29.82,NW,313,0.0,1.0,92,0.00,,,0.00,weatherlink.com 1.10,2013-02-24 05:51:00,
2013-02-24 01:06:00,42.8,41.0,29.82,NW,313,0.0,1.0,92,0.00,,,0.00,weatherlink.com 1.10,2013-02-24 06:06:00,
2013-02-24 01:21:00,43.1,41.0,29.81,NW,311,1.0,2.0,92,0.00,,,0.00,weatherlink.com 1.10,2013-02-24 06:21:00,
2013-02-24 01:36:00,43.1,41.0,29.83,West,267,0.0,2.0,92,0.00,,,0.00,weatherlink.com 1.10,2013-02-24 06:36:00,
2013-02-24 01:51:00,42.5,40.0,29.83,NW,311,3.0,4.0,92,0.00,,,0.00,weatherlink.com 1.10,2013-02-24 06:51:00,
2013-02-24 02:06:00,41.6,40.0,29.83,NW,318,3.0,4.0,94,0.00,,,0.00,weatherlink.com 1.10,2013-02-24 07:06:00,
2013-02-24 02:21:00,41.2,40.0,29.82,NNW,327,2.0,3.0,94,0.00,,,0.00,weatherlink.com 1.10,2013-02-24 07:21:00,
2013-02-24 02:36:00,41.3,40.0,29.82,NNW,327,0.0,1.0,95,0.00,,,0.00,weatherlink.com 1.10,2013-02-24 07:36:00,
2013-02-24 02:51:00,41.9,40.0,29.81,NNW,327,0.0,0.0,94,0.00,,,0.00,weatherlink.com 1.10,2013-02-24 07:51:00,
2013-02-24 03:06:00,42.2,40.0,29.80,NNW,328,0.0,1.0,93,0.00,,,0.00,weatherlink.com 1.10,2013-02-24 08:06:00,
2013-02-24 03:22:00,41.9,40.0,29.80,NNW,328,0.0,0.0,92,0.00,,,0.00,weatherlink.com 1.10,2013-02-24 08:22:00,
2013-02-24 03:37:00,41.8,40.0,29.80,NNW,328,0.0,1.0,92,0.00,,,0.00,weatherlink.com 1.10,2013-02-24 08:37:00,
2013-02-24 03:52:00,41.5,40.0,29.81,NW,314,1.0,3.0,94,0.00,,,0.00,weatherlink.com 1.10,2013-02-24 08:52:00,
2013-02-24 04:07:00,40.9,39.0,29.82,NW,311,2.0,3.0,94,0.00,,,0.00,weatherlink.com 1.10,2013-02-24 09:07:00,
2013-02-24 04:22:00,40.3,39.0,29.81,NW,312,0.0,2.0,94,0.00,,,0.00,weatherlink.com 1.10,2013-02-24 09:22:00,
2013-02-24 04:37:00,39.8,38.0,29.82,NW,316,0.0,2.0,94,0.00,,,0.00,weatherlink.com 1.10,2013-02-24 09:37:00,
2013-02-24 04:52:00,39.3,38.0,29.83,North,9,0.0,2.0,94,0.00,,,0.00,weatherlink.com 1.10,2013-02-24 09:52:00,
2013-02-24 05:07:00,38.9,37.0,29.83,North,9,0.0,1.0,94,0.00,,,0.00,weatherlink.com 1.10,2013-02-24 10:07:00,
2013-02-24 05:22:00,38.8,37.0,29.85,NNW,338,1.0,2.0,94,0.00,,,0.00,weatherlink.com 1.10,2013-02-24 10:22:00,
2013-02-24 05:37:00,38.5,37.0,29.85,North,355,0.0,2.0,94,0.00,,,0.00,weatherlink.com 1.10,2013-02-24 10:37:00,
2013-02-24 05:52:00,38.6,37.0,29.85,North,5,0.0,2.0,93,0.00,,,0.00,weatherlink.com 1.10,2013-02-24 10:52:00,
2013-02-24 06:07:00,38.5,37.0,29.85,North,5,0.0,1.0,93,0.00,,,0.00,weatherlink.com 1.10,2013-02-24 11:07:00,
2013-02-24 06:22:00,38.9,37.0,29.85,NNE,22,0.0,2.0,92,0.00,,,0.00,weatherlink.com 1.10,2013-02-24 11:22:00,
2013-02-24 06:37:00,39.2,37.0,29.86,NNE,22,0.0,2.0,90,0.00,,,0.00,weatherlink.com 1.10,2013-02-24 11:37:00,
2013-02-24 06:52:00,38.7,36.0,29.86,WNW,289,2.0,3.0,89,0.00,,,0.00,weatherlink.com 1.10,2013-02-24 11:52:00,
2013-02-24 07:07:00,40.0,36.0,29.88,NW,318,1.0,2.0,86,0.00,,,0.00,weatherlink.com 1.10,2013-02-24 12:07:00,
2013-02-24 07:22:00,41.0,35.0,29.89,NW,304,3.0,4.0,80,0.00,,,0.00,weatherlink.com 1.10,2013-02-24 12:22:00,
2013-02-24 07:37:00,41.4,35.0,29.90,NW,311,1.0,4.0,78,0.00,,,0.00,weatherlink.com 1.10,2013-02-24 12:37:00,
2013-02-24 07:52:00,41.4,35.0,29.91,NW,319,2.0,2.0,79,0.00,,,0.00,weatherlink.com 1.10,2013-02-24 12:52:00,
2013-02-24 08:07:00,41.7,36.0,29.91,WNW,299,0.0,2.0,79,0.00,,,0.00,weatherlink.com 1.10,2013-02-24 13:07:00,
2013-02-24 08:22:00,42.7,35.0,29.92,WNW,302,1.0,5.0,74,0.00,,,0.00,weatherlink.com 1.10,2013-02-24 13:22:00,
2013-02-24 08:37:00,43.6,34.0,29.93,WNW,299,3.0,6.0,70,0.00,,,0.00,weatherlink.com 1.10,2013-02-24 13:37:00,
2013-02-24 08:52:00,44.7,34.0,29.93,NNW,335,4.0,7.0,66,0.00,,,0.00,weatherlink.com 1.10,2013-02-24 13:52:00,
2013-02-24 09:07:00,45.7,33.0,29.92,NW,317,3.0,8.0,62,0.00,,,0.00,weatherlink.com 1.10,2013-02-24 14:07:00,
2013-02-24 09:22:00,46.2,31.0,29.92,NNW,338,3.0,9.0,56,0.00,,,0.00,weatherlink.com 1.10,2013-02-24 14:22:00,
2013-02-24 09:37:00,46.9,30.0,29.92,WNW,292,2.0,11.0,52,0.00,,,0.00,weatherlink.com 1.10,2013-02-24 14:37:00,
2013-02-24 09:52:00,47.4,30.0,29.92,WNW,300,5.0,9.0,52,0.00,,,0.00,weatherlink.com 1.10,2013-02-24 14:52:00,
2013-02-24 10:07:00,48.0,29.0,29.93,WNW,291,5.0,10.0,49,0.00,,,0.00,weatherlink.com 1.10,2013-02-24 15:07:00,
2013-02-24 10:22:00,48.6,30.0,29.93,WSW,255,9.0,10.0,48,0.00,,,0.00,weatherlink.com 1.10,2013-02-24 15:22:00,
2013-02-24 10:38:00,49.2,30.0,29.94,NW,313,2.0,10.0,48,0.00,,,0.00,weatherlink.com 1.10,2013-02-24 15:38:00,
2013-02-24 10:53:00,49.7,29.0,29.95,NNE,25,3.0,9.0,46,0.00,,,0.00,weatherlink.com 1.10,2013-02-24 15:53:00,
2013-02-24 11:08:00,50.3,28.0,29.94,WNW,283,5.0,11.0,43,0.00,,,0.00,weatherlink.com 1.10,2013-02-24 16:08:00,
2013-02-24 11:23:00,50.9,28.0,29.94,West,281,3.0,9.0,42,0.00,,,0.00,weatherlink.com 1.10,2013-02-24 16:23:00,
2013-02-24 11:38:00,51.2,29.0,29.94,NNW,335,3.0,9.0,42,0.00,,,0.00,weatherlink.com 1.10,2013-02-24 16:38:00,
2013-02-24 11:53:00,52.1,29.0,29.94,NE,49,1.0,6.0,42,0.00,,,0.00,weatherlink.com 1.10,2013-02-24 16:53:00,
2013-02-24 12:08:00,52.6,28.0,29.93,WNW,295,3.0,6.0,39,0.00,,,0.00,weatherlink.com 1.10,2013-02-24 17:08:00,
2013-02-24 12:23:00,52.9,28.0,29.93,NW,310,4.0,7.0,39,0.00,,,0.00,weatherlink.com 1.10,2013-02-24 17:23:00,
2013-02-24 12:38:00,53.4,27.0,29.92,NW,315,5.0,12.0,36,0.00,,,0.00,weatherlink.com 1.10,2013-02-24 17:38:00,
2013-02-24 12:53:00,54.1,26.0,29.91,WSW,254,4.0,9.0,34,0.00,,,0.00,weatherlink.com 1.10,2013-02-24 17:53:00,
2013-02-24 13:08:00,54.6,27.0,29.91,NW,316,3.0,8.0,35,0.00,,,0.00,weatherlink.com 1.10,2013-02-24 18:08:00,
2013-02-24 13:23:00,54.5,26.0,29.90,NW,313,4.0,8.0,34,0.00,,,0.00,weatherlink.com 1.10,2013-02-24 18:23:00,
2013-02-24 13:38:00,55.3,26.0,29.90,NW,309,4.0,6.0,33,0.00,,,0.00,weatherlink.com 1.10,2013-02-24 18:38:00,
2013-02-24 13:53:00,56.0,27.0,29.90,West,263,4.0,6.0,33,0.00,,,0.00,weatherlink.com 1.10,2013-02-24 18:53:00,
2013-02-24 14:08:00,56.9,26.0,29.89,WNW,282,4.0,8.0,31,0.00,,,0.00,weatherlink.com 1.10,2013-02-24 19:08:00,
2013-02-24 14:23:00,57.2,26.0,29.89,NW,322,3.0,7.0,30,0.00,,,0.00,weatherlink.com 1.10,2013-02-24 19:23:00,
2013-02-24 14:38:00,57.5,26.0,29.89,West,275,4.0,9.0,30,0.00,,,0.00,weatherlink.com 1.10,2013-02-24 19:38:00,
2013-02-24 14:53:00,58.4,26.0,29.89,NW,306,3.0,6.0,29,0.00,,,0.00,weatherlink.com 1.10,2013-02-24 19:53:00,
2013-02-24 15:08:00,58.4,26.0,29.89,NE,52,2.0,7.0,29,0.00,,,0.00,weatherlink.com 1.10,2013-02-24 20:08:00,
2013-02-24 15:23:00,58.7,25.0,29.89,ENE,57,1.0,7.0,28,0.00,,,0.00,weatherlink.com 1.10,2013-02-24 20:23:00,
2013-02-24 15:38:00,59.0,26.0,29.89,North,5,4.0,8.0,28,0.00,,,0.00,weatherlink.com 1.10,2013-02-24 20:38:00,
2013-02-24 15:53:00,58.6,25.0,29.90,NW,304,2.0,7.0,27,0.00,,,0.00,weatherlink.com 1.10,2013-02-24 20:53:00,
2013-02-24 16:08:00,58.6,25.0,29.90,NNE,25,1.0,5.0,28,0.00,,,0.00,weatherlink.com 1.10,2013-02-24 21:08:00,
2013-02-24 16:23:00,58.5,24.0,29.90,NW,319,7.0,8.0,27,0.00,,,0.00,weatherlink.com 1.10,2013-02-24 21:23:00,
2013-02-24 16:38:00,58.2,23.0,29.90,NW,322,7.0,7.0,26,0.00,,,0.00,weatherlink.com 1.10,2013-02-24 21:38:00,
2013-02-24 16:53:00,57.2,23.0,29.91,NW,317,3.0,5.0,27,0.00,,,0.00,weatherlink.com 1.10,2013-02-24 21:53:00,
2013-02-24 17:08:00,56.7,23.0,29.91,WNW,292,3.0,5.0,27,0.00,,,0.00,weatherlink.com 1.10,2013-02-24 22:08:00,
2013-02-24 17:23:00,56.0,21.0,29.92,NW,315,0.0,5.0,26,0.00,,,0.00,weatherlink.com 1.10,2013-02-24 22:23:00,
2013-02-24 17:38:00,55.0,21.0,29.93,NW,321,3.0,6.0,27,0.00,,,0.00,weatherlink.com 1.10,2013-02-24 22:38:00,
2013-02-24 17:53:00,53.8,20.0,29.93,NNW,327,1.0,6.0,27,0.00,,,0.00,weatherlink.com 1.10,2013-02-24 22:53:00,
2013-02-24 18:08:00,52.7,20.0,29.94,WNW,302,0.0,5.0,28,0.00,,,0.00,weatherlink.com 1.10,2013-02-24 23:08:00,
2013-02-24 18:23:00,51.6,21.0,29.94,WNW,288,1.0,4.0,30,0.00,,,0.00,weatherlink.com 1.10,2013-02-24 23:23:00,
2013-02-24 18:38:00,51.1,20.0,29.96,WNW,300,1.0,4.0,30,0.00,,,0.00,weatherlink.com 1.10,2013-02-24 23:38:00,
2013-02-24 18:53:00,50.6,20.0,29.97,WNW,296,1.0,6.0,30,0.00,,,0.00,weatherlink.com 1.10,2013-02-24 23:53:00,
2013-02-24 19:09:00,50.3,21.0,29.97,NW,325,2.0,5.0,31,0.00,,,0.00,weatherlink.com 1.10,2013-02-25 00:09:00,
2013-02-24 19:23:00,49.9,21.0,29.98,NW,319,2.0,5.0,32,0.00,,,0.00,weatherlink.com 1.10,2013-02-25 00:23:00,
2013-02-24 19:38:00,49.5,21.0,29.98,WNW,289,1.0,4.0,33,0.00,,,0.00,weatherlink.com 1.10,2013-02-25 00:38:00,
2013-02-24 19:54:00,48.8,21.0,30.00,NNW,336,3.0,4.0,34,0.00,,,0.00,weatherlink.com 1.10,2013-02-25 00:54:00,
2013-02-24 20:09:00,48.3,22.0,30.00,NW,313,1.0,4.0,35,0.00,,,0.00,weatherlink.com 1.10,2013-02-25 01:09:00,
2013-02-24 20:24:00,47.6,22.0,30.01,NW,319,0.0,3.0,37,0.00,,,0.00,weatherlink.com 1.10,2013-02-25 01:24:00,
2013-02-24 20:39:00,46.7,23.0,30.02,NW,316,1.0,4.0,39,0.00,,,0.00,weatherlink.com 1.10,2013-02-25 01:39:00,
2013-02-24 20:54:00,46.4,23.0,30.02,NW,308,0.0,4.0,40,0.00,,,0.00,weatherlink.com 1.10,2013-02-25 01:54:00,
2013-02-24 21:09:00,45.3,23.0,30.03,NNW,338,0.0,0.0,41,0.00,,,0.00,weatherlink.com 1.10,2013-02-25 02:09:00,
2013-02-24 21:24:00,44.4,22.0,30.03,NW,304,1.0,3.0,42,0.00,,,0.00,weatherlink.com 1.10,2013-02-25 02:24:00,
2013-02-24 21:39:00,43.8,23.0,30.04,WNW,303,0.0,1.0,44,0.00,,,0.00,weatherlink.com 1.10,2013-02-25 02:39:00,
2013-02-24 21:54:00,43.1,22.0,30.04,North,355,0.0,0.0,43,0.00,,,0.00,weatherlink.com 1.10,2013-02-25 02:54:00,
2013-02-24 22:09:00,42.8,22.0,30.04,North,355,0.0,1.0,44,0.00,,,0.00,weatherlink.com 1.10,2013-02-25 03:09:00,
2013-02-24 22:24:00,42.1,22.0,30.04,West,276,0.0,3.0,45,0.00,,,0.00,weatherlink.com 1.10,2013-02-25 03:24:00,
2013-02-24 22:39:00,42.6,22.0,30.05,NE,53,0.0,2.0,44,0.00,,,0.00,weatherlink.com 1.10,2013-02-25 03:39:00,
2013-02-24 22:54:00,41.5,21.0,30.04,NE,53,0.0,1.0,45,0.00,,,0.00,weatherlink.com 1.10,2013-02-25 03:54:00,
2013-02-24 23:09:00,40.7,23.0,30.03,NE,53,0.0,0.0,49,0.00,,,0.00,weatherlink.com 1.10,2013-02-25 04:09:00,
2013-02-24 23:24:00,39.9,22.0,30.04,NE,55,0.0,0.0,49,0.00,,,0.00,weatherlink.com 1.10,2013-02-25 04:24:00,
2013-02-24 23:39:00,39.3,21.0,30.04,NE,55,0.0,0.0,49,0.00,,,0.00,weatherlink.com 1.10,2013-02-25 04:39:00,
2013-02-24 23:54:00,39.0,22.0,30.05,NE,55,0.0,0.0,50,0.00,,,0.00,weatherlink.com 1.10,2013-02-25 04:54:00,